createdAt,value
2023-12-11T00:01:56.640Z,67.80
2023-12-11T00:07:02.226Z,65.72
2023-12-11T00:12:06.847Z,70.20
2023-12-11T00:17:11.110Z,69.05
2023-12-11T00:22:16.765Z,58.60
2023-12-11T00:27:20.953Z,59.30
2023-12-11T00:32:25.154Z,46.72
2023-12-11T00:37:31.019Z,50.53
2023-12-11T00:42:36.652Z,45.15
2023-12-11T00:47:41.399Z,51.50
2023-12-11T00:52:47.238Z,94.10
2023-12-11T00:57:51.506Z,77.13
2023-12-11T01:02:55.641Z,48.65
2023-12-11T01:08:01.115Z,44.85
2023-12-11T01:13:05.315Z,54.47
2023-12-11T01:18:09.912Z,48.53
2023-12-11T01:23:15.642Z,55.85
2023-12-11T01:28:19.948Z,57.70
2023-12-11T01:33:24.246Z,59.72
2023-12-11T01:38:30.413Z,61.10
2023-12-11T01:43:34.835Z,62.83
2023-12-11T01:48:39.371Z,73.32
2023-12-11T01:53:47.106Z,71.18
2023-12-11T01:58:51.746Z,75.63
2023-12-11T02:03:56.028Z,65.20
2023-12-11T02:09:03.249Z,65.88
2023-12-11T02:14:07.514Z,65.70
2023-12-11T02:19:12.031Z,69.75
2023-12-11T02:24:24.104Z,67.50
2023-12-11T02:29:29.833Z,79.32
2023-12-11T02:34:34.181Z,67.30
2023-12-11T02:39:39.097Z,83.28
2023-12-11T02:44:44.742Z,71.28
2023-12-11T02:49:49.017Z,88.85
2023-12-11T02:54:53.602Z,93.15
2023-12-11T02:59:59.176Z,77.60
2023-12-11T03:05:03.693Z,84.50
2023-12-11T03:10:09.283Z,91.50
2023-12-11T03:15:16.025Z,91.70
2023-12-11T03:20:20.428Z,90.85
2023-12-11T03:25:25.796Z,80.85
2023-12-11T03:30:31.417Z,54.90
2023-12-11T03:35:35.921Z,46.85
2023-12-11T03:40:40.026Z,42.25
2023-12-11T03:45:48.770Z,42.92
2023-12-11T03:50:52.978Z,50.92
2023-12-11T03:55:58.124Z,63.80
2023-12-11T04:01:03.769Z,63.50
2023-12-11T04:06:08.248Z,54.85
2023-12-11T04:11:12.648Z,52.95
2023-12-11T04:16:18.167Z,54.05
2023-12-11T04:21:22.401Z,53.22
2023-12-11T04:26:26.731Z,65.68
2023-12-11T04:31:32.351Z,63.05
2023-12-11T04:36:36.514Z,78.45
2023-12-11T04:41:40.754Z,68.00
2023-12-11T04:46:46.266Z,79.18
2023-12-11T04:51:50.440Z,79.85
2023-12-11T04:56:54.896Z,84.40
2023-12-11T05:02:00.614Z,100.32
2023-12-11T05:07:05.234Z,95.03
2023-12-11T05:12:10.132Z,89.50
2023-12-11T05:17:15.706Z,95.68
2023-12-11T05:22:19.936Z,122.95
2023-12-11T05:27:24.505Z,133.40
2023-12-11T05:32:30.169Z,120.30
2023-12-11T05:37:34.488Z,106.50
2023-12-11T05:42:39.789Z,71.32
2023-12-11T05:47:45.650Z,65.60
2023-12-11T05:52:50.181Z,70.18
2023-12-11T05:57:54.545Z,67.72
2023-12-11T06:03:00.599Z,54.65
2023-12-11T06:08:05.025Z,58.35
2023-12-11T06:13:09.117Z,57.35
2023-12-11T06:18:14.923Z,54.38
2023-12-11T06:23:19.084Z,43.42
2023-12-11T06:28:23.301Z,63.50
2023-12-11T06:33:28.830Z,63.17
2023-12-11T06:38:33.117Z,63.78
2023-12-11T06:43:38.019Z,47.22
2023-12-11T06:48:43.799Z,52.35
2023-12-11T06:53:48.020Z,67.70
2023-12-11T06:58:52.802Z,76.82
2023-12-11T07:03:59.117Z,74.82
2023-12-11T07:09:04.324Z,57.00
2023-12-11T07:14:09.084Z,44.13
2023-12-11T07:19:14.819Z,53.30
2023-12-11T07:24:19.184Z,40.17
2023-12-11T07:29:23.709Z,65.75
2023-12-11T07:34:30.554Z,98.53
2023-12-11T07:39:36.030Z,82.80
2023-12-11T07:44:41.165Z,57.72
2023-12-11T07:49:46.764Z,214.50
2023-12-11T07:54:50.944Z,244.45
2023-12-11T07:59:55.556Z,239.68
2023-12-11T08:05:01.395Z,232.07
2023-12-11T08:10:06.698Z,227.70
2023-12-11T08:15:11.746Z,225.80
2023-12-11T08:20:18.921Z,223.48
2023-12-11T08:25:23.743Z,177.68
2023-12-11T08:30:28.023Z,132.68
2023-12-11T08:35:36.260Z,81.05
2023-12-11T08:40:40.920Z,204.40
2023-12-11T08:45:45.685Z,163.82
2023-12-11T08:50:53.958Z,155.70
2023-12-11T08:55:58.158Z,119.95
2023-12-11T09:01:02.391Z,104.65
2023-12-11T09:06:09.872Z,61.85
2023-12-11T09:11:14.002Z,102.25
2023-12-11T09:16:18.326Z,81.38
2023-12-11T09:21:25.316Z,78.75
2023-12-11T09:26:29.494Z,51.58
2023-12-11T09:31:33.840Z,31.38
2023-12-11T09:36:39.488Z,37.42
2023-12-11T09:41:46.327Z,34.05
2023-12-11T09:46:55.542Z,30.58
2023-12-11T09:52:06.025Z,36.35
2023-12-11T09:57:12.550Z,32.08
2023-12-11T10:02:18.595Z,19.88
2023-12-11T10:07:24.678Z,21.25
2023-12-11T10:12:41.502Z,22.27
2023-12-11T10:18:01.169Z,16.35
2023-12-11T10:23:18.711Z,16.48
2023-12-11T10:28:25.444Z,20.92
2023-12-11T10:33:32.590Z,14.48
2023-12-11T10:39:42.047Z,20.70
2023-12-11T10:45:25.266Z,18.27
2023-12-11T10:50:29.716Z,16.70
2023-12-11T10:55:34.597Z,17.20
2023-12-11T11:00:41.745Z,19.77
2023-12-11T11:05:48.393Z,16.23
2023-12-11T11:10:56.834Z,15.98
2023-12-11T11:16:02.776Z,17.47
2023-12-11T11:21:11.446Z,12.05
2023-12-11T11:26:35.981Z,16.20
2023-12-11T11:31:52.668Z,13.55
2023-12-11T11:36:59.235Z,10.60
2023-12-11T11:42:04.709Z,10.30
2023-12-11T11:47:10.065Z,14.77
2023-12-11T11:52:15.929Z,13.15
2023-12-11T11:57:28.364Z,17.38
2023-12-11T12:02:34.028Z,11.75
2023-12-11T12:07:40.144Z,13.57
2023-12-11T12:12:44.620Z,11.98
2023-12-11T12:17:50.292Z,14.10
2023-12-11T12:22:58.773Z,14.90
2023-12-11T12:28:06.225Z,19.40
2023-12-11T12:33:14.182Z,13.48
2023-12-11T12:38:18.934Z,17.10
2023-12-11T12:43:24.420Z,19.42
2023-12-11T12:48:32.884Z,12.82
2023-12-11T12:53:48.020Z,14.80
2023-12-11T12:58:55.173Z,14.68
2023-12-11T13:04:03.471Z,15.23
2023-12-11T13:09:09.999Z,14.98
2023-12-11T13:14:14.447Z,13.02
2023-12-11T13:19:21.011Z,18.10
2023-12-11T13:24:25.127Z,26.80
2023-12-11T13:29:29.266Z,23.88
2023-12-11T13:34:34.968Z,29.25
2023-12-11T13:39:39.454Z,30.15
2023-12-11T13:44:43.718Z,21.65
2023-12-11T13:49:49.209Z,23.10
2023-12-11T13:54:54.457Z,25.80
2023-12-11T13:59:58.760Z,26.63
2023-12-11T14:05:07.057Z,41.50
2023-12-11T14:10:12.285Z,38.00
2023-12-11T14:15:17.201Z,32.53
2023-12-11T14:20:22.757Z,31.83
2023-12-11T14:25:27.728Z,52.85
2023-12-11T14:30:35.533Z,106.90
2023-12-11T14:35:41.325Z,155.80
2023-12-11T14:40:45.763Z,52.00
2023-12-11T14:45:50.903Z,24.65
2023-12-11T14:50:56.621Z,46.90
2023-12-11T14:56:00.605Z,45.88
2023-12-11T15:01:05.118Z,43.92
2023-12-11T15:06:11.562Z,33.80
2023-12-11T15:11:19.164Z,116.80
2023-12-11T15:16:23.670Z,102.20
2023-12-11T15:21:30.230Z,108.80
2023-12-11T15:26:34.272Z,125.32
2023-12-11T15:31:39.396Z,109.30
2023-12-11T15:36:45.002Z,54.88
2023-12-11T15:41:51.197Z,25.15
2023-12-11T15:46:55.339Z,34.75
2023-12-11T15:52:00.812Z,53.38
2023-12-11T15:57:08.052Z,24.98
2023-12-11T16:02:12.332Z,51.38
2023-12-11T16:07:18.196Z,119.32
2023-12-11T16:12:22.743Z,82.90
2023-12-11T16:17:26.965Z,87.22
2023-12-11T16:22:35.977Z,116.45
2023-12-11T16:27:40.511Z,62.72
2023-12-11T16:32:44.792Z,31.55
2023-12-11T16:37:50.540Z,81.38
2023-12-11T16:42:54.889Z,319.75
2023-12-11T16:47:59.468Z,265.15
2023-12-11T16:53:07.239Z,314.08
2023-12-11T16:58:11.722Z,178.90
2023-12-11T17:03:16.186Z,119.80
2023-12-11T17:08:21.846Z,100.63
2023-12-11T17:13:26.964Z,89.95
2023-12-11T17:18:31.955Z,58.20
2023-12-11T17:23:39.000Z,60.30
2023-12-11T17:28:43.377Z,87.03
2023-12-11T17:33:55.876Z,92.57
2023-12-11T17:39:01.829Z,57.95
2023-12-11T17:44:06.082Z,44.05
2023-12-11T17:49:10.338Z,87.93
2023-12-11T17:54:15.784Z,72.32
2023-12-11T17:59:20.095Z,57.50
2023-12-11T18:04:24.202Z,90.93
2023-12-11T18:09:29.542Z,125.43
2023-12-11T18:14:33.677Z,82.72
2023-12-11T18:19:37.840Z,100.63
2023-12-11T18:24:43.479Z,105.82
2023-12-11T18:29:48.239Z,69.75
2023-12-11T18:34:54.933Z,66.28
2023-12-11T18:40:02.077Z,34.67
2023-12-11T18:45:09.999Z,40.33
2023-12-11T18:50:14.300Z,46.67
2023-12-11T18:55:20.189Z,61.80
2023-12-11T19:00:24.534Z,48.03
2023-12-11T19:05:28.782Z,37.42
2023-12-11T19:10:34.273Z,40.78
2023-12-11T19:15:38.509Z,51.50
2023-12-11T19:20:42.837Z,56.65
2023-12-11T19:25:48.202Z,46.15
2023-12-11T19:30:52.256Z,40.03
2023-12-11T19:35:56.341Z,39.03
2023-12-11T19:41:02.857Z,35.25
2023-12-11T19:46:08.246Z,37.38
2023-12-11T19:51:16.350Z,39.92
2023-12-11T19:56:27.402Z,56.35
2023-12-11T20:01:34.968Z,81.40
2023-12-11T20:06:40.481Z,86.70
2023-12-11T20:11:47.310Z,88.00
2023-12-11T20:16:51.502Z,94.25
2023-12-11T20:21:55.508Z,43.92
2023-12-11T20:27:00.845Z,39.65
2023-12-11T20:32:05.495Z,36.30
2023-12-11T20:37:09.852Z,42.47
2023-12-11T20:42:16.150Z,53.95
2023-12-11T20:47:20.149Z,59.45
2023-12-11T20:52:24.240Z,42.80
2023-12-11T20:57:31.699Z,35.45
2023-12-11T21:02:37.272Z,34.28
2023-12-11T21:07:42.835Z,50.78
2023-12-11T21:12:48.241Z,117.97
2023-12-11T21:17:52.467Z,177.82
2023-12-11T21:22:56.508Z,142.75
2023-12-11T21:28:01.863Z,99.72
2023-12-11T21:33:05.859Z,78.68
2023-12-11T21:38:11.644Z,86.15
2023-12-11T21:43:17.824Z,94.82
2023-12-11T21:48:22.386Z,128.82
2023-12-11T21:53:26.469Z,109.97
2023-12-11T21:58:31.855Z,91.90
2023-12-11T22:03:35.888Z,71.93
2023-12-11T22:08:39.858Z,98.63
2023-12-11T22:13:46.536Z,115.40
2023-12-11T22:18:51.092Z,80.05
2023-12-11T22:23:55.486Z,68.43
2023-12-11T22:29:00.915Z,82.97
2023-12-11T22:34:05.402Z,141.88
2023-12-11T22:39:09.580Z,149.10
2023-12-11T22:44:15.065Z,126.20
2023-12-11T22:49:19.156Z,120.38
2023-12-11T22:54:23.289Z,116.78
2023-12-11T22:59:28.654Z,101.10
2023-12-11T23:04:32.728Z,87.43
2023-12-11T23:09:36.981Z,94.75
2023-12-11T23:14:42.373Z,86.00
2023-12-11T23:19:46.604Z,79.88
2023-12-11T23:24:50.911Z,71.75
2023-12-11T23:30:04.047Z,60.58
2023-12-11T23:35:11.629Z,62.08
2023-12-11T23:40:15.788Z,95.95
2023-12-11T23:45:21.196Z,125.88
2023-12-11T23:50:25.190Z,93.22
2023-12-11T23:55:30.064Z,92.47
